createdAt,value
2018-12-13T00:00:14.211Z,8.50
2018-12-13T00:02:43.325Z,8.33
2018-12-13T00:05:12.417Z,8.77
2018-12-13T00:07:41.543Z,9.60
2018-12-13T00:10:10.645Z,10.33
2018-12-13T00:12:39.743Z,9.80
2018-12-13T00:15:08.824Z,13.67
2018-12-13T00:17:37.941Z,15.50
2018-12-13T00:20:07.163Z,15.17
2018-12-13T00:22:36.279Z,8.97
2018-12-13T00:25:05.338Z,9.57
2018-12-13T00:27:34.414Z,12.03
2018-12-13T00:30:03.521Z,19.73
2018-12-13T00:32:32.608Z,13.80
2018-12-13T00:35:01.695Z,12.40
2018-12-13T00:37:30.800Z,10.63
2018-12-13T00:39:59.905Z,7.90
2018-12-13T00:42:29.000Z,10.17
2018-12-13T00:44:58.086Z,8.30
2018-12-13T00:47:27.198Z,9.20
2018-12-13T00:49:56.292Z,8.50
2018-12-13T00:52:25.388Z,9.07
2018-12-13T00:54:54.484Z,15.43
2018-12-13T00:57:23.563Z,11.20
2018-12-13T00:59:52.665Z,8.93
2018-12-13T01:02:21.762Z,9.40
2018-12-13T01:04:50.843Z,8.50
2018-12-13T01:07:19.948Z,7.90
2018-12-13T01:09:49.063Z,6.07
2018-12-13T01:12:18.180Z,7.53
2018-12-13T01:14:47.277Z,6.97
2018-12-13T01:17:16.377Z,6.27
2018-12-13T01:19:45.474Z,6.70
2018-12-13T01:22:14.566Z,7.10
2018-12-13T01:24:43.654Z,6.73
2018-12-13T01:27:12.751Z,7.73
2018-12-13T01:29:41.848Z,7.10
2018-12-13T01:32:10.928Z,7.47
2018-12-13T01:34:40.043Z,7.93
2018-12-13T01:37:09.146Z,6.90
2018-12-13T01:39:38.304Z,8.00
2018-12-13T01:42:07.447Z,7.67
2018-12-13T01:44:36.533Z,7.73
2018-12-13T01:47:05.680Z,7.93
2018-12-13T01:49:34.759Z,7.10
2018-12-13T01:52:03.865Z,9.50
2018-12-13T01:54:32.972Z,10.90
2018-12-13T01:57:02.076Z,7.27
2018-12-13T01:59:31.160Z,8.40
2018-12-13T02:02:00.252Z,6.40
2018-12-13T02:04:29.347Z,8.50
2018-12-13T02:06:58.897Z,9.83
2018-12-13T02:09:28.088Z,8.77
2018-12-13T02:11:57.218Z,9.77
2018-12-13T02:14:26.321Z,7.60
2018-12-13T02:16:55.437Z,6.90
2018-12-13T02:19:24.534Z,6.13
2018-12-13T02:21:53.655Z,6.70
2018-12-13T02:24:22.768Z,6.93
2018-12-13T02:26:51.868Z,5.80
2018-12-13T02:29:20.933Z,7.20
2018-12-13T02:31:50.020Z,6.03
2018-12-13T02:34:19.090Z,8.47
2018-12-13T02:36:48.200Z,7.97
2018-12-13T02:39:17.306Z,7.10
2018-12-13T02:41:46.427Z,6.37
2018-12-13T02:44:15.514Z,6.73
2018-12-13T02:46:44.597Z,7.33
2018-12-13T02:49:13.705Z,7.00
2018-12-13T02:51:42.829Z,6.83
2018-12-13T02:54:11.917Z,6.93
2018-12-13T02:56:41.030Z,7.27
2018-12-13T02:59:10.089Z,6.60
2018-12-13T03:01:39.259Z,5.13
2018-12-13T03:04:08.345Z,6.60
2018-12-13T03:06:37.464Z,5.30
2018-12-13T03:09:08.198Z,6.30
2018-12-13T03:11:37.277Z,6.30
2018-12-13T03:14:06.369Z,8.23
2018-12-13T03:16:35.487Z,7.50
2018-12-13T03:19:04.582Z,7.00
2018-12-13T03:21:33.672Z,8.70
2018-12-13T03:24:02.776Z,7.00
2018-12-13T03:26:31.859Z,6.97
2018-12-13T03:29:01.020Z,7.00
2018-12-13T03:31:30.213Z,6.97
2018-12-13T03:33:59.328Z,7.80
2018-12-13T03:36:28.430Z,7.47
2018-12-13T03:38:57.561Z,5.77
2018-12-13T03:41:26.685Z,6.87
2018-12-13T03:43:55.784Z,6.33
2018-12-13T03:46:24.879Z,5.80
2018-12-13T03:48:53.996Z,6.10
2018-12-13T03:51:23.114Z,7.10
2018-12-13T03:53:52.324Z,6.83
2018-12-13T03:56:21.532Z,7.37
2018-12-13T03:58:50.632Z,8.67
2018-12-13T04:01:19.712Z,9.40
2018-12-13T04:03:48.798Z,7.80
2018-12-13T04:06:18.048Z,7.37
2018-12-13T04:08:47.264Z,8.10
2018-12-13T04:11:16.339Z,6.93
2018-12-13T04:13:45.487Z,7.17
2018-12-13T04:16:14.675Z,6.93
2018-12-13T04:18:43.761Z,6.40
2018-12-13T04:21:12.864Z,6.20
2018-12-13T04:23:41.969Z,7.67
2018-12-13T04:26:11.016Z,6.57
2018-12-13T04:28:40.113Z,6.53
2018-12-13T04:31:09.215Z,6.30
2018-12-13T04:33:38.381Z,7.07
2018-12-13T04:36:07.511Z,7.80
2018-12-13T04:38:36.601Z,9.00
2018-12-13T04:41:05.693Z,10.73
2018-12-13T04:43:34.808Z,11.80
2018-12-13T04:46:03.950Z,9.20
2018-12-13T04:48:33.035Z,11.20
2018-12-13T04:51:02.133Z,11.60
2018-12-13T04:53:31.356Z,14.13
2018-12-13T04:56:00.433Z,16.47
2018-12-13T04:58:29.536Z,19.93
2018-12-13T05:00:58.633Z,25.43
2018-12-13T05:03:27.731Z,23.30
2018-12-13T05:05:56.825Z,19.57
2018-12-13T05:08:25.922Z,21.90
2018-12-13T05:10:55.660Z,17.60
2018-12-13T05:13:24.775Z,20.13
2018-12-13T05:15:53.846Z,19.87
2018-12-13T05:18:22.937Z,19.57
2018-12-13T05:20:52.016Z,20.50
2018-12-13T05:23:21.125Z,18.80
2018-12-13T05:25:50.245Z,19.13
2018-12-13T05:28:19.358Z,21.40
2018-12-13T05:30:48.451Z,20.87
2018-12-13T05:33:17.559Z,29.13
2018-12-13T05:35:46.673Z,25.43
2018-12-13T05:38:15.840Z,21.43
2018-12-13T05:40:44.994Z,21.30
2018-12-13T05:43:14.120Z,17.60
2018-12-13T05:45:43.256Z,17.43
2018-12-13T05:48:12.369Z,16.40
2018-12-13T05:50:41.495Z,17.90
2018-12-13T05:53:10.618Z,16.30
2018-12-13T05:55:39.721Z,13.93
2018-12-13T05:58:08.817Z,14.47
2018-12-13T06:00:37.997Z,12.00
2018-12-13T06:03:07.117Z,11.80
2018-12-13T06:05:36.206Z,12.23
2018-12-13T06:08:05.305Z,13.00
2018-12-13T06:10:34.410Z,11.87
2018-12-13T06:13:03.509Z,9.73
2018-12-13T06:15:32.609Z,11.40
2018-12-13T06:18:06.830Z,9.60
2018-12-13T06:20:32.812Z,9.07
2018-12-13T06:23:01.919Z,8.00
2018-12-13T06:25:31.016Z,8.10
2018-12-13T06:28:00.110Z,8.27
2018-12-13T06:30:29.192Z,7.70
2018-12-13T06:32:58.294Z,9.67
2018-12-13T06:35:27.365Z,8.13
2018-12-13T06:38:01.275Z,11.53
2018-12-13T06:40:27.568Z,9.50
2018-12-13T06:42:56.699Z,11.03
2018-12-13T06:45:25.787Z,9.33
2018-12-13T06:47:54.902Z,10.80
2018-12-13T06:50:24.021Z,10.60
2018-12-13T06:52:53.110Z,10.40
2018-12-13T06:55:22.198Z,10.90
2018-12-13T06:57:51.317Z,11.47
2018-12-13T07:00:20.402Z,12.40
2018-12-13T07:02:49.512Z,15.60
2018-12-13T07:05:18.613Z,12.83
2018-12-13T07:07:47.715Z,11.87
2018-12-13T07:10:16.857Z,12.00
2018-12-13T07:12:45.936Z,11.20
2018-12-13T07:15:15.058Z,9.73
2018-12-13T07:17:44.146Z,12.23
2018-12-13T07:20:13.278Z,12.40
2018-12-13T07:22:42.386Z,14.67
2018-12-13T07:25:11.504Z,13.57
2018-12-13T07:27:40.594Z,68.07
2018-12-13T07:30:10.157Z,17.23
2018-12-13T07:32:39.269Z,13.00
2018-12-13T07:35:08.356Z,13.90
2018-12-13T07:37:37.466Z,10.30
2018-12-13T07:40:07.804Z,12.47
2018-12-13T07:42:36.931Z,10.47
2018-12-13T07:45:06.124Z,11.13
2018-12-13T07:47:35.253Z,11.77
2018-12-13T07:50:04.404Z,11.20
2018-12-13T07:52:33.516Z,11.93
2018-12-13T07:55:02.589Z,9.90
2018-12-13T07:57:31.710Z,9.57
2018-12-13T08:00:00.877Z,8.67
2018-12-13T08:02:29.963Z,10.80
2018-12-13T08:04:59.090Z,9.83
2018-12-13T08:07:28.200Z,11.43
2018-12-13T08:09:57.305Z,10.80
2018-12-13T08:12:26.475Z,8.83
2018-12-13T08:14:55.582Z,10.53
2018-12-13T08:17:24.820Z,9.90
2018-12-13T08:19:53.941Z,50.27
2018-12-13T08:22:23.007Z,14.40
2018-12-13T08:24:52.102Z,13.73
2018-12-13T08:27:21.210Z,12.40
2018-12-13T08:29:50.285Z,9.33
2018-12-13T08:32:19.341Z,7.40
2018-12-13T08:34:48.530Z,6.83
2018-12-13T08:37:17.625Z,7.30
2018-12-13T08:39:46.698Z,7.10
2018-12-13T08:42:15.791Z,6.20
2018-12-13T08:44:44.873Z,7.97
2018-12-13T08:47:13.962Z,7.00
2018-12-13T08:49:43.050Z,6.57
2018-12-13T08:52:12.162Z,5.57
2018-12-13T08:55:12.138Z,11.10
2018-12-13T08:57:41.206Z,11.67
2018-12-13T09:00:10.276Z,11.53
2018-12-13T09:02:39.341Z,12.37
2018-12-13T09:05:08.459Z,8.97
2018-12-13T09:07:37.521Z,9.30
2018-12-13T09:10:07.403Z,10.17
2018-12-13T09:12:36.472Z,8.30
2018-12-13T09:15:05.686Z,8.03
2018-12-13T09:17:34.746Z,9.87
2018-12-13T09:20:03.824Z,9.00
2018-12-13T09:22:32.891Z,8.50
2018-12-13T09:25:01.969Z,9.30
2018-12-13T09:27:31.032Z,6.10
2018-12-13T09:30:00.104Z,8.43
2018-12-13T09:32:29.157Z,10.47
2018-12-13T09:34:58.221Z,6.90
2018-12-13T09:37:27.298Z,9.60
2018-12-13T09:39:56.368Z,9.00
2018-12-13T09:42:25.440Z,6.43
2018-12-13T09:44:54.512Z,8.00
2018-12-13T09:47:23.590Z,10.97
2018-12-13T09:49:52.662Z,10.77
2018-12-13T09:52:21.742Z,7.20
2018-12-13T09:54:50.797Z,7.03
2018-12-13T09:57:19.878Z,6.40
2018-12-13T09:59:48.964Z,10.97
2018-12-13T10:02:18.946Z,7.80
2018-12-13T10:04:48.021Z,7.93
2018-12-13T10:07:17.091Z,9.70
2018-12-13T10:09:46.178Z,10.73
2018-12-13T10:12:15.254Z,9.93
2018-12-13T10:14:44.334Z,10.60
2018-12-13T10:17:14.880Z,7.77
2018-12-13T10:19:44.218Z,10.80
2018-12-13T10:22:13.278Z,9.97
2018-12-13T10:24:42.348Z,10.57
2018-12-13T10:27:11.420Z,9.43
2018-12-13T10:29:40.502Z,9.20
2018-12-13T10:32:09.595Z,9.60
2018-12-13T10:34:38.668Z,11.77
2018-12-13T10:37:07.792Z,15.07
2018-12-13T10:39:36.886Z,9.33
2018-12-13T10:42:05.954Z,10.60
2018-12-13T10:44:35.497Z,9.57
2018-12-13T10:47:06.129Z,9.57
2018-12-13T10:49:35.190Z,9.13
2018-12-13T10:52:04.271Z,9.70
2018-12-13T10:54:33.369Z,11.67
2018-12-13T10:57:02.453Z,8.40
2018-12-13T10:59:31.521Z,10.83
2018-12-13T11:02:05.017Z,11.57
2018-12-13T11:04:34.083Z,9.37
2018-12-13T11:07:03.165Z,7.10
2018-12-13T11:09:32.272Z,6.20
2018-12-13T11:12:01.334Z,6.53
2018-12-13T11:14:30.444Z,6.03
2018-12-13T11:16:59.536Z,6.80
2018-12-13T11:19:28.620Z,9.40
2018-12-13T11:21:57.722Z,10.00
2018-12-13T11:24:26.797Z,8.50
2018-12-13T11:26:57.078Z,7.80
2018-12-13T11:29:36.941Z,9.20
2018-12-13T11:32:06.028Z,7.57
2018-12-13T11:34:35.088Z,7.37
2018-12-13T11:37:04.177Z,7.77
2018-12-13T11:39:33.250Z,6.97
2018-12-13T11:42:02.329Z,5.93
2018-12-13T11:44:31.404Z,10.67
2018-12-13T11:47:00.468Z,8.37
2018-12-13T11:49:29.607Z,6.47
2018-12-13T11:51:58.702Z,7.97
2018-12-13T11:54:48.293Z,7.30
2018-12-13T11:57:17.361Z,7.67
2018-12-13T11:59:46.433Z,6.93
2018-12-13T12:02:15.495Z,9.90
2018-12-13T12:04:44.547Z,8.90
2018-12-13T12:07:13.626Z,8.97
2018-12-13T12:09:42.685Z,8.63
2018-12-13T12:12:11.825Z,9.80
2018-12-13T12:14:40.877Z,7.27
2018-12-13T12:17:10.028Z,9.10
2018-12-13T12:19:39.105Z,11.70
2018-12-13T12:22:08.211Z,11.53
2018-12-13T12:24:37.275Z,8.23
2018-12-13T12:27:06.392Z,7.67
2018-12-13T12:29:35.478Z,14.40
2018-12-13T12:32:04.623Z,11.30
2018-12-13T12:34:33.697Z,9.60
2018-12-13T12:37:02.795Z,9.40
2018-12-13T12:39:31.873Z,8.23
2018-12-13T12:42:02.052Z,10.43
2018-12-13T12:44:35.154Z,7.60
2018-12-13T12:47:04.225Z,6.03
2018-12-13T12:49:33.309Z,6.83
2018-12-13T12:52:02.381Z,7.40
2018-12-13T12:54:31.477Z,6.67
2018-12-13T12:57:00.544Z,7.30
2018-12-13T12:59:29.711Z,6.97
2018-12-13T13:01:58.796Z,7.87
2018-12-13T13:04:27.874Z,7.37
2018-12-13T13:06:56.969Z,6.90
2018-12-13T13:09:26.064Z,7.00
2018-12-13T13:11:55.174Z,6.80
2018-12-13T13:14:24.247Z,10.87
2018-12-13T13:16:53.586Z,9.80
2018-12-13T13:19:22.677Z,8.30
2018-12-13T13:21:51.800Z,13.90
2018-12-13T13:24:20.897Z,10.20
2018-12-13T13:26:50.033Z,10.10
2018-12-13T13:29:19.121Z,8.60
2018-12-13T13:31:48.207Z,10.27
2018-12-13T13:34:17.298Z,10.63
2018-12-13T13:36:46.409Z,12.57
2018-12-13T13:39:15.614Z,9.90
2018-12-13T13:41:44.717Z,9.00
2018-12-13T13:44:14.105Z,7.40
2018-12-13T13:46:43.245Z,7.90
2018-12-13T13:49:12.327Z,15.20
2018-12-13T13:51:41.487Z,13.60
2018-12-13T13:54:10.665Z,11.53
2018-12-13T13:56:45.830Z,11.73
2018-12-13T13:59:14.921Z,11.37
2018-12-13T14:01:44.007Z,12.43
2018-12-13T14:04:13.096Z,13.30
2018-12-13T14:06:42.212Z,19.47
2018-12-13T14:09:11.339Z,21.00
2018-12-13T14:11:40.516Z,21.40
2018-12-13T14:14:09.641Z,24.13
2018-12-13T14:16:38.750Z,24.83
2018-12-13T14:19:07.965Z,26.10
2018-12-13T14:21:37.077Z,26.40
2018-12-13T14:24:06.169Z,32.93
2018-12-13T14:26:35.268Z,35.50
2018-12-13T14:29:04.368Z,38.43
2018-12-13T14:31:34.631Z,45.43
2018-12-13T14:34:04.003Z,58.40
2018-12-13T14:36:33.102Z,62.50
2018-12-13T14:39:02.185Z,70.20
2018-12-13T14:41:31.575Z,57.37
2018-12-13T14:44:00.653Z,41.53
2018-12-13T14:46:29.784Z,33.30
2018-12-13T14:48:58.853Z,31.00
2018-12-13T14:51:27.946Z,33.77
2018-12-13T14:53:57.044Z,39.17
2018-12-13T14:56:26.122Z,44.67
2018-12-13T14:58:55.180Z,39.03
2018-12-13T15:01:24.258Z,37.10
2018-12-13T15:03:53.348Z,42.13
2018-12-13T15:06:22.461Z,35.80
2018-12-13T15:08:51.569Z,32.70
2018-12-13T15:11:20.669Z,35.87
2018-12-13T15:13:49.823Z,30.63
2018-12-13T15:16:18.930Z,35.30
2018-12-13T15:18:48.024Z,74.00
2018-12-13T15:21:17.104Z,72.40
2018-12-13T15:23:46.185Z,59.47
2018-12-13T15:26:15.256Z,63.17
2018-12-13T15:28:44.393Z,54.57
2018-12-13T15:31:13.624Z,68.07
2018-12-13T15:33:42.721Z,64.37
2018-12-13T15:36:11.800Z,73.80
2018-12-13T15:38:40.891Z,76.67
2018-12-13T15:41:09.976Z,89.13
2018-12-13T15:43:39.061Z,91.80
2018-12-13T15:46:08.142Z,81.33
2018-12-13T15:48:37.269Z,65.97
2018-12-13T15:51:06.357Z,68.13
2018-12-13T15:53:35.431Z,68.60
2018-12-13T15:56:04.523Z,69.83
2018-12-13T15:58:33.644Z,62.00
2018-12-13T16:01:03.839Z,51.30
2018-12-13T16:03:32.912Z,55.00
2018-12-13T16:06:02.097Z,58.53
2018-12-13T16:08:31.180Z,58.57
2018-12-13T16:11:00.568Z,58.80
2018-12-13T16:13:29.655Z,62.47
2018-12-13T16:15:58.771Z,69.13
2018-12-13T16:18:27.895Z,72.67
2018-12-13T16:20:56.977Z,60.93
2018-12-13T16:23:26.285Z,53.40
2018-12-13T16:25:55.357Z,48.13
2018-12-13T16:28:24.464Z,49.43
2018-12-13T16:30:53.588Z,60.93
2018-12-13T16:33:22.672Z,51.77
2018-12-13T16:35:51.796Z,53.50
2018-12-13T16:38:20.984Z,58.60
2018-12-13T16:40:50.141Z,63.07
2018-12-13T16:43:19.244Z,65.43
2018-12-13T16:45:48.338Z,55.07
2018-12-13T16:48:17.489Z,51.70
2018-12-13T16:50:46.614Z,50.00
2018-12-13T16:53:15.766Z,54.40
2018-12-13T16:55:44.873Z,57.30
2018-12-13T16:58:14.235Z,54.90
2018-12-13T17:00:43.344Z,61.27
2018-12-13T17:03:23.141Z,63.20
2018-12-13T17:05:52.245Z,63.17
2018-12-13T17:08:21.365Z,61.23
2018-12-13T17:10:50.449Z,59.43
2018-12-13T17:13:19.672Z,59.30
2018-12-13T17:15:48.806Z,73.27
2018-12-13T17:18:17.993Z,77.97
2018-12-13T17:20:48.099Z,86.40
2018-12-13T17:23:17.214Z,106.47
2018-12-13T17:25:46.317Z,103.90
2018-12-13T17:28:15.466Z,85.40
2018-12-13T17:30:44.594Z,72.97
2018-12-13T17:33:13.838Z,83.03
2018-12-13T17:35:43.354Z,71.30
2018-12-13T17:38:13.305Z,66.23
2018-12-13T17:40:42.934Z,60.50
2018-12-13T17:43:12.035Z,61.43
2018-12-13T17:45:41.161Z,64.20
2018-12-13T17:48:11.228Z,64.57
2018-12-13T17:50:40.326Z,61.77
2018-12-13T17:53:09.433Z,64.87
2018-12-13T17:55:39.238Z,54.50
2018-12-13T17:58:08.636Z,49.50
2018-12-13T18:00:37.744Z,52.30
2018-12-13T18:03:07.772Z,54.63
2018-12-13T18:05:37.782Z,49.50
2018-12-13T18:08:08.071Z,53.17
2018-12-13T18:10:37.218Z,52.50
2018-12-13T18:13:06.525Z,52.60
2018-12-13T18:15:36.470Z,57.20
2018-12-13T18:18:06.241Z,54.30
2018-12-13T18:20:35.368Z,47.70
2018-12-13T18:23:04.481Z,45.83
2018-12-13T18:25:33.608Z,89.80
2018-12-13T18:28:02.712Z,54.40
2018-12-13T18:30:31.839Z,39.90
2018-12-13T18:33:00.987Z,51.77
2018-12-13T18:35:31.087Z,42.97
2018-12-13T18:38:00.229Z,46.13
2018-12-13T18:40:35.497Z,56.87
2018-12-13T18:43:00.862Z,65.80
2018-12-13T18:45:34.509Z,77.80
2018-12-13T18:48:04.158Z,65.33
2018-12-13T18:50:33.289Z,55.83
2018-12-13T18:53:03.085Z,59.50
2018-12-13T18:55:32.870Z,52.10
2018-12-13T18:58:02.008Z,53.87
2018-12-13T19:00:31.662Z,65.63
2018-12-13T19:03:01.012Z,73.93
2018-12-13T19:05:30.278Z,88.87
2018-12-13T19:07:59.386Z,88.70
2018-12-13T19:10:28.615Z,87.00
2018-12-13T19:12:57.729Z,88.00
2018-12-13T19:15:26.879Z,89.60
2018-12-13T19:17:57.413Z,69.60
2018-12-13T19:20:28.042Z,71.87
2018-12-13T19:22:57.256Z,65.17
2018-12-13T19:25:27.807Z,65.10
2018-12-13T19:27:57.168Z,52.27
2018-12-13T19:30:26.585Z,56.67
2018-12-13T19:32:55.706Z,55.73
2018-12-13T19:35:25.306Z,54.03
2018-12-13T19:37:54.441Z,47.57
2018-12-13T19:40:24.690Z,46.50
2018-12-13T19:42:55.294Z,42.17
2018-12-13T19:45:24.489Z,40.30
2018-12-13T19:47:53.664Z,35.87
2018-12-13T19:50:23.395Z,52.67
2018-12-13T19:52:52.509Z,46.10
2018-12-13T19:55:21.611Z,36.53
2018-12-13T19:57:50.746Z,44.27
2018-12-13T20:00:20.752Z,48.80
2018-12-13T20:02:50.126Z,42.93
2018-12-13T20:05:19.257Z,47.30
2018-12-13T20:07:48.409Z,44.40
2018-12-13T20:10:17.912Z,41.83
2018-12-13T20:12:48.114Z,42.90
2018-12-13T20:15:23.959Z,43.90
2018-12-13T20:17:49.372Z,42.50
2018-12-13T20:20:19.239Z,44.10
2018-12-13T20:22:48.337Z,64.80
2018-12-13T20:25:17.896Z,72.67
2018-12-13T20:27:47.048Z,67.00
2018-12-13T20:30:16.356Z,64.93
2018-12-13T20:32:46.796Z,56.90
2018-12-13T20:35:16.192Z,48.60
2018-12-13T20:37:46.200Z,42.83
2018-12-13T20:40:15.958Z,43.10
2018-12-13T20:42:45.496Z,41.10
2018-12-13T20:45:14.663Z,49.60
2018-12-13T20:47:44.193Z,55.40
2018-12-13T20:50:14.188Z,60.17
2018-12-13T20:52:43.395Z,62.30
2018-12-13T20:55:12.609Z,60.50
2018-12-13T20:57:42.953Z,61.70
2018-12-13T21:00:12.670Z,58.40
2018-12-13T21:02:41.790Z,57.40
2018-12-13T21:05:11.033Z,59.50
2018-12-13T21:07:40.160Z,60.67
2018-12-13T21:10:11.018Z,63.57
2018-12-13T21:12:40.156Z,75.37
2018-12-13T21:15:09.812Z,74.80
2018-12-13T21:17:39.073Z,79.40
2018-12-13T21:20:08.382Z,71.07
2018-12-13T21:22:37.499Z,71.90
2018-12-13T21:25:06.676Z,76.97
2018-12-13T21:27:35.806Z,74.50
2018-12-13T21:30:05.353Z,73.50
2018-12-13T21:32:34.454Z,76.77
2018-12-13T21:35:03.598Z,80.40
2018-12-13T21:37:32.686Z,66.90
2018-12-13T21:40:01.799Z,59.37
2018-12-13T21:42:30.913Z,54.60
2018-12-13T21:45:00.000Z,54.40
2018-12-13T21:47:29.103Z,53.47
2018-12-13T21:49:58.236Z,50.37
2018-12-13T21:52:27.330Z,47.10
2018-12-13T21:54:56.434Z,43.80
2018-12-13T21:57:25.798Z,44.50
2018-12-13T21:59:54.921Z,52.90
2018-12-13T22:02:24.018Z,54.60
2018-12-13T22:04:53.160Z,52.50
2018-12-13T22:07:22.281Z,47.47
2018-12-13T22:09:51.388Z,48.70
2018-12-13T22:12:20.521Z,49.93
2018-12-13T22:14:49.682Z,54.40
2018-12-13T22:17:18.812Z,49.30
2018-12-13T22:19:47.951Z,42.07
2018-12-13T22:22:17.077Z,42.70
2018-12-13T22:24:46.206Z,37.63
2018-12-13T22:27:15.342Z,36.17
2018-12-13T22:29:44.474Z,34.60
2018-12-13T22:32:13.635Z,34.63
2018-12-13T22:34:43.045Z,34.20
2018-12-13T22:37:12.538Z,36.43
2018-12-13T22:39:41.670Z,41.50
2018-12-13T22:42:10.808Z,44.80
2018-12-13T22:44:39.932Z,52.23
2018-12-13T22:47:09.057Z,52.47
2018-12-13T22:49:38.213Z,53.67
2018-12-13T22:52:07.337Z,37.40
2018-12-13T22:54:36.473Z,34.80
2018-12-13T22:57:05.619Z,31.57
2018-12-13T22:59:34.802Z,35.27
2018-12-13T23:02:03.925Z,36.90
2018-12-13T23:04:33.083Z,35.43
2018-12-13T23:07:02.245Z,27.77
2018-12-13T23:09:31.435Z,24.23
2018-12-13T23:12:00.574Z,22.77
2018-12-13T23:14:29.749Z,21.60
2018-12-13T23:19:42.616Z,29.23
2018-12-13T23:22:11.755Z,32.47
2018-12-13T23:24:40.913Z,27.90
2018-12-13T23:27:10.048Z,21.67
2018-12-13T23:29:39.177Z,26.80
2018-12-13T23:32:08.321Z,26.97
2018-12-13T23:34:37.452Z,28.47
2018-12-13T23:37:06.609Z,27.80
2018-12-13T23:39:35.744Z,31.27
2018-12-13T23:42:04.899Z,45.00
2018-12-13T23:44:34.041Z,43.30
2018-12-13T23:47:03.185Z,48.77
2018-12-13T23:49:32.317Z,47.10
2018-12-13T23:52:01.465Z,43.50
2018-12-13T23:54:30.608Z,38.43
2018-12-13T23:56:59.753Z,32.13
2018-12-13T23:59:28.878Z,30.80
